createdAt,value
2022-10-03T00:01:29.150Z,12.48
2022-10-03T00:04:11.930Z,12.45
2022-10-03T00:06:53.072Z,12.44
2022-10-03T00:09:35.322Z,12.44
2022-10-03T00:12:20.920Z,12.42
2022-10-03T00:15:02.938Z,12.43
2022-10-03T00:17:49.441Z,12.42
2022-10-03T00:20:45.841Z,12.44
2022-10-03T00:23:22.616Z,12.46
2022-10-03T00:26:23.231Z,12.47
2022-10-03T00:29:04.837Z,12.49
2022-10-03T00:31:47.406Z,12.52
2022-10-03T00:34:29.323Z,12.50
2022-10-03T00:37:16.774Z,12.46
2022-10-03T00:40:11.599Z,12.46
2022-10-03T00:43:09.912Z,12.46
2022-10-03T00:45:56.732Z,12.45
2022-10-03T00:49:04.751Z,12.44
2022-10-03T00:51:49.634Z,12.42
2022-10-03T00:54:47.569Z,12.41
2022-10-03T00:57:40.553Z,12.39
2022-10-03T01:00:21.457Z,12.33
2022-10-03T01:03:24.664Z,12.30
2022-10-03T01:06:09.186Z,12.27
2022-10-03T01:09:07.469Z,12.26
2022-10-03T01:11:56.565Z,12.24
2022-10-03T01:14:48.131Z,12.21
2022-10-03T01:17:28.436Z,12.20
2022-10-03T01:20:14.681Z,12.19
2022-10-03T01:23:07.196Z,12.14
2022-10-03T01:25:48.083Z,12.15
2022-10-03T01:28:59.865Z,12.14
2022-10-03T01:31:37.419Z,12.13
2022-10-03T01:34:13.766Z,12.14
2022-10-03T01:36:54.489Z,12.13
2022-10-03T01:39:30.085Z,12.15
2022-10-03T01:42:04.423Z,12.18
2022-10-03T01:44:53.389Z,12.23
2022-10-03T01:47:26.660Z,12.21
2022-10-03T01:50:04.283Z,12.17
2022-10-03T01:52:44.574Z,12.13
2022-10-03T01:55:21.718Z,12.11
2022-10-03T01:58:01.845Z,12.11
2022-10-03T02:00:43.439Z,12.11
2022-10-03T02:03:22.323Z,12.08
2022-10-03T02:06:03.012Z,12.08
2022-10-03T02:08:47.914Z,12.09
2022-10-03T02:11:33.876Z,12.14
2022-10-03T02:14:24.250Z,12.21
2022-10-03T02:17:02.551Z,12.25
2022-10-03T02:19:38.153Z,12.29
2022-10-03T02:22:17.509Z,12.29
2022-10-03T02:24:55.277Z,12.29
2022-10-03T02:27:51.505Z,12.33
2022-10-03T02:30:24.221Z,12.35
2022-10-03T02:33:08.420Z,12.35
2022-10-03T02:36:07.597Z,12.35
2022-10-03T02:39:18.880Z,12.35
2022-10-03T02:42:19.602Z,12.35
2022-10-03T02:45:09.628Z,12.36
2022-10-03T02:48:27.482Z,12.39
2022-10-03T02:51:34.410Z,12.37
2022-10-03T02:54:51.909Z,12.39
2022-10-03T02:58:00.966Z,12.38
2022-10-03T03:00:49.306Z,12.39
2022-10-03T03:03:35.798Z,12.39
2022-10-03T03:06:32.411Z,12.39
2022-10-03T03:09:38.367Z,12.38
2022-10-03T03:12:27.508Z,12.38
2022-10-03T03:15:29.233Z,12.37
2022-10-03T03:18:07.632Z,12.35
2022-10-03T03:20:57.907Z,12.31
2022-10-03T03:23:54.576Z,12.29
2022-10-03T03:26:38.064Z,12.30
2022-10-03T03:29:14.418Z,12.31
2022-10-03T03:31:50.176Z,12.30
2022-10-03T03:34:28.125Z,12.28
2022-10-03T03:37:02.839Z,12.28
2022-10-03T03:39:47.725Z,12.28
2022-10-03T03:42:40.184Z,12.29
2022-10-03T03:45:29.496Z,12.28
2022-10-03T03:48:12.430Z,12.25
2022-10-03T03:50:47.828Z,12.27
2022-10-03T03:53:47.201Z,12.25
2022-10-03T03:56:40.879Z,12.21
2022-10-03T03:59:24.424Z,12.20
2022-10-03T04:02:09.258Z,12.20
2022-10-03T04:05:03.514Z,12.20
2022-10-03T04:07:49.996Z,12.16
2022-10-03T04:10:29.707Z,12.09
2022-10-03T04:13:23.706Z,12.02
2022-10-03T04:16:43.054Z,11.98
2022-10-03T04:19:19.124Z,11.97
2022-10-03T04:22:12.413Z,11.94
2022-10-03T04:25:05.527Z,11.92
2022-10-03T04:27:44.364Z,11.91
2022-10-03T04:30:15.689Z,11.84
2022-10-03T04:32:57.267Z,11.83
2022-10-03T04:36:21.696Z,11.83
2022-10-03T04:39:00.817Z,11.81
2022-10-03T04:41:42.883Z,11.80
2022-10-03T04:44:33.915Z,11.77
2022-10-03T04:47:11.009Z,11.73
2022-10-03T04:49:43.242Z,11.72
2022-10-03T04:52:20.201Z,11.68
2022-10-03T04:54:55.981Z,11.66
2022-10-03T04:57:32.651Z,11.62
2022-10-03T05:00:17.376Z,11.64
2022-10-03T05:02:55.791Z,11.67
2022-10-03T05:05:42.824Z,11.74
2022-10-03T05:08:20.649Z,11.79
2022-10-03T05:10:58.044Z,11.81
2022-10-03T05:13:39.383Z,11.82
2022-10-03T05:16:19.361Z,11.84
2022-10-03T05:18:54.854Z,11.78
2022-10-03T05:21:35.267Z,11.73
2022-10-03T05:24:17.938Z,11.71
2022-10-03T05:26:53.555Z,11.72
2022-10-03T05:29:29.345Z,11.73
2022-10-03T05:32:14.532Z,11.73
2022-10-03T05:35:04.221Z,11.74
2022-10-03T05:37:53.891Z,11.75
2022-10-03T05:40:25.607Z,11.76
2022-10-03T05:43:08.305Z,11.78
2022-10-03T05:45:49.697Z,11.78
2022-10-03T05:48:31.792Z,11.78
2022-10-03T05:51:17.427Z,11.76
2022-10-03T05:54:23.544Z,11.74
2022-10-03T05:57:25.744Z,11.70
2022-10-03T06:00:07.437Z,11.70
2022-10-03T06:02:54.042Z,11.69
2022-10-03T06:05:47.354Z,11.69
2022-10-03T06:08:50.416Z,11.68
2022-10-03T06:11:46.811Z,11.66
2022-10-03T06:14:35.220Z,11.68
2022-10-03T06:17:29.402Z,11.70
2022-10-03T06:20:14.256Z,11.70
2022-10-03T06:23:21.623Z,11.73
2022-10-03T06:26:16.151Z,11.73
2022-10-03T06:29:25.002Z,11.76
2022-10-03T06:32:26.695Z,11.76
2022-10-03T06:35:27.101Z,11.75
2022-10-03T06:38:37.857Z,11.77
2022-10-03T06:41:30.325Z,11.78
2022-10-03T06:44:16.610Z,11.81
2022-10-03T06:47:27.020Z,11.82
2022-10-03T06:50:35.591Z,11.82
2022-10-03T06:53:19.386Z,11.83
2022-10-03T06:56:16.348Z,11.86
2022-10-03T06:59:09.351Z,11.93
2022-10-03T07:02:10.673Z,11.91
2022-10-03T07:05:10.957Z,11.94
2022-10-03T07:08:15.691Z,11.98
2022-10-03T07:10:57.096Z,12.01
2022-10-03T07:13:55.108Z,12.03
2022-10-03T07:17:11.355Z,12.04
2022-10-03T07:19:58.493Z,12.09
2022-10-03T07:23:06.351Z,12.13
2022-10-03T07:26:17.852Z,12.14
2022-10-03T07:29:09.456Z,12.15
2022-10-03T07:31:52.128Z,12.14
2022-10-03T07:34:43.975Z,12.16
2022-10-03T07:37:48.118Z,12.18
2022-10-03T07:40:45.757Z,12.17
2022-10-03T07:43:46.916Z,12.23
2022-10-03T07:46:39.450Z,12.22
2022-10-03T07:49:24.522Z,12.26
2022-10-03T07:52:15.610Z,12.36
2022-10-03T07:55:11.325Z,12.45
2022-10-03T07:58:05.835Z,12.60
2022-10-03T08:00:52.538Z,12.93
2022-10-03T08:04:02.635Z,13.39
2022-10-03T08:06:38.955Z,13.97
2022-10-03T08:09:36.898Z,14.28
2022-10-03T08:12:26.533Z,14.48
2022-10-03T08:15:04.652Z,14.90
2022-10-03T08:18:16.110Z,15.76
2022-10-03T08:20:54.448Z,16.35
2022-10-03T08:24:05.343Z,16.64
2022-10-03T08:26:46.388Z,16.74
2022-10-03T08:29:53.158Z,16.77
2022-10-03T08:32:49.886Z,16.73
2022-10-03T08:35:35.197Z,16.64
2022-10-03T08:38:28.216Z,16.39
2022-10-03T08:41:27.001Z,16.19
2022-10-03T08:44:25.957Z,16.00
2022-10-03T08:47:20.964Z,16.05
2022-10-03T08:50:38.251Z,16.22
2022-10-03T08:53:40.698Z,16.18
2022-10-03T08:56:14.674Z,16.13
2022-10-03T08:59:07.816Z,16.46
2022-10-03T09:01:57.889Z,17.49
2022-10-03T09:05:19.671Z,17.95
2022-10-03T09:08:23.123Z,17.81
2022-10-03T09:11:14.816Z,17.64
2022-10-03T09:14:16.161Z,17.60
2022-10-03T09:17:00.009Z,17.37
2022-10-03T09:19:57.777Z,17.22
2022-10-03T09:22:51.224Z,17.42
2022-10-03T09:25:39.316Z,18.42
2022-10-03T09:28:30.640Z,19.70
2022-10-03T09:31:15.072Z,21.22
2022-10-03T09:34:27.006Z,23.03
2022-10-03T09:37:42.077Z,23.82
2022-10-03T09:40:40.362Z,23.76
2022-10-03T09:43:58.243Z,22.61
2022-10-03T09:47:07.616Z,21.47
2022-10-03T09:50:20.228Z,20.55
2022-10-03T09:53:28.357Z,20.02
2022-10-03T09:56:30.337Z,20.05
2022-10-03T09:59:31.190Z,20.87
2022-10-03T10:06:24.857Z,21.54
2022-10-03T11:03:26.740Z,26.33
2022-10-03T11:06:46.103Z,26.34
2022-10-03T11:13:17.994Z,25.64
2022-10-03T11:16:26.661Z,24.57
2022-10-03T11:19:44.705Z,23.69
2022-10-03T11:23:07.386Z,22.93
2022-10-03T11:29:32.387Z,21.71
2022-10-03T11:32:36.902Z,21.37
2022-10-03T11:35:38.575Z,21.76
2022-10-03T11:38:17.009Z,22.41
2022-10-03T11:40:58.020Z,22.76
2022-10-03T11:43:51.690Z,22.89
2022-10-03T11:46:38.345Z,23.01
2022-10-03T11:49:24.729Z,23.44
2022-10-03T11:52:04.165Z,23.86
2022-10-03T11:54:37.475Z,25.05
2022-10-03T11:57:10.261Z,25.99
2022-10-03T11:59:54.629Z,26.52
2022-10-03T12:02:44.745Z,27.17
2022-10-03T12:05:22.432Z,27.43
2022-10-03T12:08:21.456Z,26.65
2022-10-03T12:11:06.330Z,25.57
2022-10-03T12:13:41.708Z,24.79
2022-10-03T12:16:38.256Z,24.04
2022-10-03T12:19:35.679Z,23.33
2022-10-03T12:22:24.029Z,22.93
2022-10-03T12:24:56.104Z,22.55
2022-10-03T12:27:44.821Z,22.27
2022-10-03T12:30:16.571Z,22.12
2022-10-03T12:32:58.786Z,21.95
2022-10-03T12:35:40.510Z,21.77
2022-10-03T12:38:33.773Z,21.67
2022-10-03T12:41:17.183Z,21.63
2022-10-03T12:44:04.990Z,21.57
2022-10-03T12:46:43.185Z,21.51
2022-10-03T12:49:16.904Z,21.35
2022-10-03T12:51:55.119Z,21.23
2022-10-03T12:54:38.771Z,21.09
2022-10-03T12:57:40.209Z,20.93
2022-10-03T13:00:20.825Z,20.84
2022-10-03T13:03:02.778Z,20.77
2022-10-03T13:05:55.613Z,20.62
2022-10-03T13:08:43.349Z,20.41
2022-10-03T13:11:28.046Z,20.27
2022-10-03T13:14:08.466Z,20.15
2022-10-03T13:16:46.672Z,20.02
2022-10-03T13:19:19.076Z,19.92
2022-10-03T13:21:55.253Z,19.95
2022-10-03T13:24:33.029Z,19.91
2022-10-03T13:27:14.166Z,19.90
2022-10-03T13:29:44.929Z,19.89
2022-10-03T13:32:32.253Z,19.85
2022-10-03T13:35:29.526Z,19.81
2022-10-03T13:38:37.038Z,19.71
2022-10-03T13:41:15.010Z,19.59
2022-10-03T13:43:56.035Z,19.56
2022-10-03T13:46:31.267Z,19.53
2022-10-03T13:49:10.743Z,19.49
2022-10-03T13:51:47.537Z,19.46
2022-10-03T13:54:24.181Z,19.45
2022-10-03T13:56:57.832Z,19.41
2022-10-03T13:59:37.792Z,19.28
2022-10-03T14:02:36.788Z,19.17
2022-10-03T14:05:33.827Z,19.07
2022-10-03T14:08:10.792Z,18.96
2022-10-03T14:11:06.164Z,18.87
2022-10-03T14:13:46.143Z,18.76
2022-10-03T14:16:20.403Z,18.67
2022-10-03T14:18:55.460Z,18.57
2022-10-03T14:21:42.017Z,18.42
2022-10-03T14:24:26.372Z,18.29
2022-10-03T14:27:00.978Z,18.16
2022-10-03T14:29:37.596Z,18.05
2022-10-03T14:32:42.595Z,17.94
2022-10-03T14:35:13.686Z,17.87
2022-10-03T14:37:47.701Z,17.80
2022-10-03T14:40:20.066Z,17.73
2022-10-03T14:42:55.066Z,17.73
2022-10-03T14:45:26.890Z,17.67
2022-10-03T14:48:00.480Z,17.66
2022-10-03T14:50:32.007Z,17.65
2022-10-03T14:53:06.818Z,17.62
2022-10-03T14:55:41.206Z,17.63
2022-10-03T14:58:18.782Z,17.62
2022-10-03T15:00:49.523Z,17.56
2022-10-03T15:03:30.551Z,17.46
2022-10-03T15:06:21.176Z,17.36
2022-10-03T15:08:54.506Z,17.26
2022-10-03T15:11:27.954Z,17.18
2022-10-03T15:14:02.498Z,17.10
2022-10-03T15:16:35.871Z,17.02
2022-10-03T15:19:09.870Z,16.98
2022-10-03T15:21:39.300Z,16.92
2022-10-03T15:54:26.266Z,16.09
2022-10-03T15:57:11.671Z,16.00
2022-10-03T16:02:36.129Z,15.80
2022-10-03T16:05:08.610Z,15.68
2022-10-03T16:07:42.123Z,15.61
2022-10-03T16:10:21.246Z,15.44
2022-10-03T16:13:01.019Z,15.30
2022-10-03T16:15:49.162Z,15.17
2022-10-03T16:18:45.777Z,15.06
2022-10-03T16:21:21.473Z,14.97
2022-10-03T16:23:55.396Z,14.91
2022-10-03T16:26:29.049Z,14.83
2022-10-03T16:29:12.174Z,14.79
2022-10-03T16:31:45.803Z,14.75
2022-10-03T16:34:17.344Z,14.67
2022-10-03T16:36:48.786Z,14.60
2022-10-03T16:39:25.354Z,14.52
2022-10-03T16:41:56.693Z,14.45
2022-10-03T16:44:29.590Z,14.38
2022-10-03T16:47:02.691Z,14.32
2022-10-03T16:49:56.816Z,14.27
2022-10-03T16:52:32.269Z,14.20
2022-10-03T16:55:05.635Z,14.14
2022-10-03T16:57:45.911Z,14.06
2022-10-03T17:00:20.568Z,13.98
2022-10-03T17:02:49.851Z,13.91
2022-10-03T17:05:20.707Z,13.84
2022-10-03T17:07:52.883Z,13.82
2022-10-03T17:10:36.384Z,13.82
2022-10-03T17:13:13.613Z,13.76
2022-10-03T17:15:50.152Z,13.68
2022-10-03T17:18:25.720Z,13.59
2022-10-03T17:21:07.856Z,13.52
2022-10-03T17:23:41.095Z,13.42
2022-10-03T17:26:14.643Z,13.35
2022-10-03T17:28:52.612Z,13.26
2022-10-03T17:31:30.158Z,13.19
2022-10-03T17:34:06.459Z,13.10
2022-10-03T17:36:54.577Z,12.97
2022-10-03T17:39:36.553Z,12.86
2022-10-03T17:42:10.207Z,12.75
2022-10-03T17:44:47.725Z,12.66
2022-10-03T17:47:21.031Z,12.58
2022-10-03T17:49:57.324Z,12.50
2022-10-03T17:52:26.797Z,12.44
2022-10-03T17:54:58.372Z,12.40
2022-10-03T17:57:28.917Z,12.31
2022-10-03T18:00:02.586Z,12.21
2022-10-03T18:02:41.305Z,12.16
2022-10-03T18:05:14.887Z,12.14
2022-10-03T18:07:44.185Z,12.11
2022-10-03T18:10:22.443Z,12.08
2022-10-03T18:12:54.818Z,12.03
2022-10-03T18:15:40.837Z,11.92
2022-10-03T18:18:50.314Z,11.80
2022-10-03T18:21:28.347Z,11.70
2022-10-03T18:24:14.121Z,11.63
2022-10-03T18:26:44.542Z,11.55
2022-10-03T18:29:23.620Z,11.48
2022-10-03T18:31:57.639Z,11.40
2022-10-03T18:34:34.466Z,11.35
2022-10-03T18:37:17.795Z,11.30
2022-10-03T18:39:51.195Z,11.25
2022-10-03T18:42:28.078Z,11.22
2022-10-03T18:44:57.902Z,11.21
2022-10-03T18:47:33.117Z,11.19
2022-10-03T18:50:10.104Z,11.17
2022-10-03T18:52:43.746Z,11.14
2022-10-03T18:55:19.355Z,11.10
2022-10-03T18:57:55.887Z,11.06
2022-10-03T19:00:28.465Z,11.05
2022-10-03T19:03:00.152Z,11.05
2022-10-03T19:05:33.504Z,11.06
2022-10-03T19:08:10.190Z,11.06
2022-10-03T19:10:45.914Z,11.04
2022-10-03T19:13:21.876Z,10.96
2022-10-03T19:16:16.686Z,10.90
2022-10-03T19:19:03.032Z,10.85
2022-10-03T19:21:36.519Z,10.85
2022-10-03T19:24:12.104Z,10.87
2022-10-03T19:26:44.911Z,10.88
2022-10-03T19:29:15.805Z,10.86
2022-10-03T19:31:52.633Z,10.82
2022-10-03T19:34:25.583Z,10.77
2022-10-03T19:36:55.779Z,10.72
2022-10-03T19:39:23.949Z,10.68
2022-10-03T19:41:56.169Z,10.64
2022-10-03T19:44:26.624Z,10.61
2022-10-03T19:47:06.153Z,10.60
2022-10-03T19:49:44.960Z,10.52
2022-10-03T19:52:28.696Z,10.46
2022-10-03T19:55:02.257Z,10.42
2022-10-03T19:57:40.103Z,10.41
2022-10-03T20:00:21.270Z,10.40
2022-10-03T20:02:55.013Z,10.36
2022-10-03T20:05:30.323Z,10.32
2022-10-03T20:08:03.335Z,10.27
2022-10-03T20:10:46.657Z,10.22
2022-10-03T20:13:15.242Z,10.21
2022-10-03T20:15:45.276Z,10.20
2022-10-03T20:18:20.929Z,10.23
2022-10-03T20:20:53.618Z,10.24
2022-10-03T20:23:22.858Z,10.28
2022-10-03T20:25:55.704Z,10.25
2022-10-03T20:28:30.396Z,10.18
2022-10-03T20:30:58.046Z,10.11
2022-10-03T20:33:29.280Z,10.06
2022-10-03T20:36:03.123Z,10.03
2022-10-03T20:38:46.138Z,10.01
2022-10-03T20:41:18.938Z,9.97
2022-10-03T20:43:54.514Z,9.92
2022-10-03T20:46:25.857Z,9.87
2022-10-03T20:49:19.055Z,9.84
2022-10-03T20:51:56.852Z,9.87
2022-10-03T20:54:26.471Z,9.84
2022-10-03T20:56:58.485Z,9.80
2022-10-03T20:59:38.619Z,9.78
2022-10-03T21:02:18.137Z,9.75
2022-10-03T21:04:53.726Z,9.72
2022-10-03T21:07:35.699Z,9.69
2022-10-03T21:10:11.196Z,9.64
2022-10-03T21:12:45.763Z,9.60
2022-10-03T21:15:20.807Z,9.57
2022-10-03T21:17:50.644Z,9.56
2022-10-03T21:20:23.483Z,9.54
2022-10-03T21:22:56.160Z,9.55
2022-10-03T23:06:39.961Z,8.82
